createdAt,value
2017-11-14T00:00:13.122Z,96.20
2017-11-14T00:02:39.570Z,96.10
2017-11-14T00:05:06.082Z,96.10
2017-11-14T00:07:33.358Z,96.30
2017-11-14T00:09:59.815Z,96.40
2017-11-14T00:12:27.387Z,96.30
2017-11-14T00:14:54.581Z,96.20
2017-11-14T00:17:21.985Z,96.20
2017-11-14T00:19:48.459Z,96.10
2017-11-14T00:22:14.913Z,96.20
2017-11-14T00:24:41.412Z,96.10
2017-11-14T00:27:07.855Z,96.20
2017-11-14T00:29:35.142Z,96.20
2017-11-14T00:32:02.316Z,96.20
2017-11-14T00:34:28.768Z,96.20
2017-11-14T00:36:56.657Z,96.30
2017-11-14T00:39:23.421Z,96.30
2017-11-14T00:41:49.872Z,96.30
2017-11-14T00:44:17.153Z,96.50
2017-11-14T00:46:44.332Z,96.60
2017-11-14T00:49:10.806Z,96.60
2017-11-14T00:51:37.338Z,96.70
2017-11-14T00:54:03.897Z,96.70
2017-11-14T00:56:31.171Z,96.70
2017-11-14T00:58:57.670Z,96.70
2017-11-14T01:01:24.189Z,96.70
2017-11-14T01:03:50.745Z,96.80
2017-11-14T01:06:17.218Z,96.80
2017-11-14T01:08:44.274Z,96.80
2017-11-14T01:11:10.833Z,96.70
2017-11-14T01:13:37.298Z,96.80
2017-11-14T01:16:03.740Z,96.80
2017-11-14T01:18:31.615Z,96.70
2017-11-14T01:20:58.832Z,96.80
2017-11-14T01:23:25.361Z,96.70
2017-11-14T01:25:51.918Z,97.00
2017-11-14T01:28:18.432Z,96.60
2017-11-14T01:30:44.950Z,96.50
2017-11-14T01:33:11.490Z,96.40
2017-11-14T01:35:38.050Z,96.70
2017-11-14T01:38:04.607Z,96.40
2017-11-14T01:40:32.324Z,96.30
2017-11-14T01:42:58.804Z,96.30
2017-11-14T01:45:25.319Z,96.40
2017-11-14T01:47:52.339Z,96.40
2017-11-14T01:50:18.796Z,96.30
2017-11-14T01:52:46.035Z,96.40
2017-11-14T01:55:12.503Z,96.40
2017-11-14T01:57:39.021Z,96.50
2017-11-14T02:00:05.531Z,96.60
2017-11-14T02:02:32.084Z,96.60
2017-11-14T02:04:58.592Z,96.70
2017-11-14T02:07:25.166Z,96.70
2017-11-14T02:09:52.024Z,96.80
2017-11-14T02:12:18.513Z,96.70
2017-11-14T02:14:45.008Z,96.70
2017-11-14T02:17:12.246Z,96.80
2017-11-14T02:19:38.861Z,96.40
2017-11-14T02:22:06.134Z,96.30
2017-11-14T02:24:33.412Z,96.40
2017-11-14T02:27:00.789Z,96.40
2017-11-14T02:29:27.345Z,96.40
2017-11-14T02:31:54.643Z,96.20
2017-11-14T02:34:21.191Z,96.20
2017-11-14T02:36:47.737Z,96.20
2017-11-14T02:39:14.314Z,96.20
2017-11-14T02:41:40.961Z,96.20
2017-11-14T02:44:07.532Z,96.20
2017-11-14T02:46:34.042Z,96.20
2017-11-14T02:49:01.515Z,96.10
2017-11-14T02:51:28.633Z,96.10
2017-11-14T02:53:55.282Z,96.20
2017-11-14T02:56:21.799Z,96.30
2017-11-14T02:58:48.405Z,96.30
2017-11-14T03:01:15.059Z,96.70
2017-11-14T03:03:42.337Z,96.50
2017-11-14T03:06:08.813Z,96.20
2017-11-14T03:08:36.395Z,96.20
2017-11-14T03:11:03.037Z,96.20
2017-11-14T03:13:30.410Z,96.10
2017-11-14T03:15:56.969Z,96.30
2017-11-14T03:18:24.092Z,96.20
2017-11-14T03:20:50.698Z,96.30
2017-11-14T03:23:17.191Z,96.30
2017-11-14T03:25:43.664Z,96.30
2017-11-14T03:28:10.161Z,96.30
2017-11-14T03:30:37.442Z,96.30
2017-11-14T03:33:03.979Z,96.30
2017-11-14T03:35:31.259Z,96.20
2017-11-14T03:37:58.460Z,96.10
2017-11-14T03:40:25.025Z,96.10
2017-11-14T03:42:51.541Z,96.10
2017-11-14T03:45:18.919Z,95.90
2017-11-14T03:47:46.162Z,96.00
2017-11-14T03:50:12.719Z,96.00
2017-11-14T03:52:39.333Z,96.20
2017-11-14T03:55:06.526Z,96.00
2017-11-14T03:57:33.008Z,96.00
2017-11-14T03:59:59.468Z,96.10
2017-11-14T04:02:25.944Z,96.20
2017-11-14T04:04:53.908Z,96.20
2017-11-14T04:07:20.443Z,96.20
2017-11-14T04:09:46.967Z,96.20
2017-11-14T04:12:14.213Z,96.50
2017-11-14T04:14:40.815Z,96.50
2017-11-14T04:17:07.394Z,96.60
2017-11-14T04:19:33.929Z,96.70
2017-11-14T04:22:00.366Z,96.90
2017-11-14T04:24:26.812Z,96.90
2017-11-14T04:26:54.673Z,97.00
2017-11-14T04:29:21.169Z,96.90
2017-11-14T04:31:48.891Z,96.90
2017-11-14T04:34:15.339Z,96.90
2017-11-14T04:36:41.884Z,96.90
2017-11-14T04:39:08.387Z,97.00
2017-11-14T04:41:34.900Z,97.20
2017-11-14T04:44:01.373Z,97.20
2017-11-14T04:46:27.822Z,97.40
2017-11-14T04:48:54.475Z,97.60
2017-11-14T04:51:20.940Z,97.70
2017-11-14T04:53:47.487Z,97.80
2017-11-14T04:56:14.044Z,98.00
2017-11-14T04:58:41.254Z,98.30
2017-11-14T05:01:07.876Z,98.30
2017-11-14T05:03:34.367Z,98.50
2017-11-14T05:06:00.892Z,98.40
2017-11-14T05:08:27.450Z,98.40
2017-11-14T05:10:54.010Z,98.60
2017-11-14T05:13:20.571Z,98.50
2017-11-14T05:15:47.046Z,98.40
2017-11-14T05:18:13.583Z,98.40
2017-11-14T05:20:40.140Z,98.40
2017-11-14T05:23:06.615Z,98.60
2017-11-14T05:25:33.127Z,98.50
2017-11-14T05:27:59.612Z,98.60
2017-11-14T05:30:26.731Z,98.80
2017-11-14T05:32:53.363Z,98.50
2017-11-14T05:35:20.003Z,98.50
2017-11-14T05:37:46.560Z,98.50
2017-11-14T05:40:13.018Z,98.60
2017-11-14T05:42:39.473Z,98.70
2017-11-14T05:45:05.945Z,98.60
2017-11-14T05:47:32.486Z,98.60
2017-11-14T05:49:59.648Z,98.60
2017-11-14T05:52:26.836Z,98.60
2017-11-14T05:54:53.520Z,98.60
2017-11-14T05:57:20.099Z,98.60
2017-11-14T05:59:46.610Z,98.50
2017-11-14T06:02:13.168Z,98.40
2017-11-14T06:04:39.724Z,98.30
2017-11-14T06:07:06.181Z,98.30
2017-11-14T06:09:33.459Z,98.00
2017-11-14T06:12:00.246Z,98.10
2017-11-14T06:14:27.445Z,98.00
2017-11-14T06:16:53.897Z,98.00
2017-11-14T06:19:20.405Z,97.80
2017-11-14T06:21:47.597Z,97.70
2017-11-14T06:24:15.159Z,97.70
2017-11-14T06:26:42.432Z,97.50
2017-11-14T06:29:09.815Z,97.50
2017-11-14T06:31:36.368Z,97.40
2017-11-14T06:34:02.926Z,97.40
2017-11-14T06:36:29.484Z,97.40
2017-11-14T06:38:56.678Z,97.30
2017-11-14T06:41:23.198Z,97.30
2017-11-14T06:43:50.380Z,97.30
2017-11-14T06:46:17.557Z,97.50
2017-11-14T06:48:44.966Z,96.90
2017-11-14T06:51:11.440Z,96.90
2017-11-14T06:53:38.629Z,96.60
2017-11-14T06:56:05.124Z,96.60
2017-11-14T06:58:31.682Z,96.60
2017-11-14T07:00:58.233Z,96.50
2017-11-14T07:03:24.687Z,96.40
2017-11-14T07:05:51.153Z,96.60
2017-11-14T07:08:17.712Z,96.40
2017-11-14T07:10:44.161Z,96.30
2017-11-14T07:13:11.351Z,96.20
2017-11-14T07:15:37.864Z,96.20
2017-11-14T07:18:04.357Z,96.20
2017-11-14T07:20:30.812Z,96.30
2017-11-14T07:22:57.280Z,96.20
2017-11-14T07:25:23.825Z,96.10
2017-11-14T07:27:50.247Z,96.00
2017-11-14T07:30:16.736Z,95.90
2017-11-14T07:32:44.012Z,95.90
2017-11-14T07:35:10.436Z,95.90
2017-11-14T07:37:37.130Z,95.80
2017-11-14T07:40:03.687Z,95.50
2017-11-14T07:42:30.244Z,95.40
2017-11-14T07:44:57.520Z,95.30
2017-11-14T07:47:24.079Z,95.30
2017-11-14T07:49:50.598Z,95.10
2017-11-14T07:52:17.092Z,95.00
2017-11-14T07:54:43.533Z,94.90
2017-11-14T07:57:10.745Z,94.80
2017-11-14T07:59:37.278Z,94.80
2017-11-14T08:02:03.837Z,94.80
2017-11-14T08:04:30.398Z,94.60
2017-11-14T08:06:56.914Z,94.40
2017-11-14T08:09:23.394Z,94.20
2017-11-14T08:11:50.564Z,94.20
2017-11-14T08:14:18.335Z,94.10
2017-11-14T08:16:45.553Z,94.00
2017-11-14T08:19:12.103Z,93.90
2017-11-14T08:21:38.530Z,93.90
2017-11-14T08:24:05.112Z,94.00
2017-11-14T08:26:32.306Z,94.30
2017-11-14T08:28:58.843Z,94.20
2017-11-14T08:31:26.117Z,94.80
2017-11-14T08:33:53.261Z,94.50
2017-11-14T08:36:20.260Z,94.50
2017-11-14T08:38:46.762Z,94.30
2017-11-14T08:41:13.220Z,94.30
2017-11-14T08:43:39.720Z,94.30
2017-11-14T08:46:07.029Z,94.20
2017-11-14T08:48:33.479Z,94.10
2017-11-14T08:50:59.972Z,94.30
2017-11-14T08:53:27.160Z,94.60
2017-11-14T08:55:53.690Z,94.60
2017-11-14T08:58:20.209Z,95.10
2017-11-14T09:00:46.761Z,95.00
2017-11-14T09:03:14.037Z,94.50
2017-11-14T09:05:40.595Z,94.90
2017-11-14T09:08:07.092Z,94.50
2017-11-14T09:10:33.656Z,94.60
2017-11-14T09:13:00.272Z,94.50
2017-11-14T09:15:26.908Z,94.60
2017-11-14T09:17:53.461Z,94.40
2017-11-14T09:20:20.866Z,94.40
2017-11-14T09:22:48.198Z,94.40
2017-11-14T09:25:14.901Z,94.40
2017-11-14T09:27:42.174Z,94.30
2017-11-14T09:30:09.553Z,94.20
2017-11-14T09:32:36.107Z,94.20
2017-11-14T09:35:03.487Z,94.20
2017-11-14T09:37:30.866Z,94.10
2017-11-14T09:39:57.393Z,94.10
2017-11-14T09:42:24.083Z,94.20
2017-11-14T09:44:51.392Z,93.80
2017-11-14T09:47:18.024Z,93.80
2017-11-14T09:49:44.687Z,93.50
2017-11-14T09:52:11.960Z,93.10
2017-11-14T09:54:38.491Z,93.20
2017-11-14T09:57:05.765Z,92.10
2017-11-14T09:59:32.326Z,92.00
2017-11-14T10:01:58.874Z,91.70
2017-11-14T10:04:25.426Z,91.50
2017-11-14T10:06:52.010Z,91.10
2017-11-14T10:09:18.826Z,90.90
2017-11-14T10:11:45.814Z,90.60
2017-11-14T10:14:13.420Z,90.50
2017-11-14T10:16:40.886Z,90.40
2017-11-14T10:19:07.703Z,90.60
2017-11-14T10:21:34.339Z,91.00
2017-11-14T10:24:00.940Z,90.80
2017-11-14T10:26:29.031Z,90.50
2017-11-14T10:28:55.891Z,89.90
2017-11-14T10:31:22.764Z,89.90
2017-11-14T10:33:49.529Z,88.20
2017-11-14T10:36:16.408Z,87.30
2017-11-14T10:38:43.972Z,88.20
2017-11-14T10:41:11.309Z,87.60
2017-11-14T10:43:38.843Z,87.60
2017-11-14T10:46:05.693Z,87.50
2017-11-14T10:48:33.367Z,88.00
2017-11-14T10:51:00.866Z,88.10
2017-11-14T10:53:27.824Z,87.80
2017-11-14T10:55:54.442Z,88.50
2017-11-14T10:58:22.013Z,88.30
2017-11-14T11:00:48.987Z,88.70
2017-11-14T11:03:15.523Z,89.20
2017-11-14T11:05:43.078Z,89.80
2017-11-14T11:08:11.479Z,89.40
2017-11-14T11:10:38.337Z,89.40
2017-11-14T11:13:05.784Z,90.20
2017-11-14T11:15:32.333Z,90.10
2017-11-14T11:17:59.551Z,90.20
2017-11-14T11:20:26.155Z,90.40
2017-11-14T11:22:52.965Z,90.40
2017-11-14T11:25:19.905Z,90.40
2017-11-14T11:27:47.536Z,90.40
2017-11-14T11:30:15.206Z,90.70
2017-11-14T11:32:43.455Z,90.70
2017-11-14T11:35:09.979Z,90.70
2017-11-14T11:37:37.687Z,90.90
2017-11-14T11:40:04.491Z,90.90
2017-11-14T11:42:31.374Z,90.80
2017-11-14T11:44:58.712Z,90.80
2017-11-14T11:47:28.472Z,90.80
2017-11-14T11:49:55.960Z,90.80
2017-11-14T11:52:25.072Z,90.10
2017-11-14T11:54:52.745Z,90.50
2017-11-14T11:57:20.132Z,90.30
2017-11-14T11:59:49.230Z,90.40
2017-11-14T12:02:17.019Z,90.50
2017-11-14T12:04:43.900Z,90.60
2017-11-14T12:07:11.672Z,91.00
2017-11-14T12:09:39.255Z,91.00
2017-11-14T12:12:06.122Z,91.00
2017-11-14T12:14:33.537Z,91.00
2017-11-14T12:17:01.316Z,91.00
2017-11-14T12:19:28.273Z,91.10
2017-11-14T12:21:55.091Z,91.10
2017-11-14T12:24:21.983Z,91.00
2017-11-14T12:26:48.787Z,90.90
2017-11-14T12:29:15.635Z,90.60
2017-11-14T12:31:43.400Z,90.60
2017-11-14T12:34:10.025Z,90.80
2017-11-14T12:36:40.520Z,90.60
2017-11-14T12:39:07.272Z,90.30
2017-11-14T12:41:34.841Z,88.50
2017-11-14T12:44:01.683Z,88.50
2017-11-14T12:46:29.286Z,88.30
2017-11-14T12:48:56.266Z,88.30
2017-11-14T12:51:23.144Z,88.30
2017-11-14T12:53:50.912Z,88.10
2017-11-14T12:56:17.684Z,88.10
2017-11-14T12:58:45.357Z,87.80
2017-11-14T13:01:11.976Z,87.80
2017-11-14T13:03:39.004Z,88.30
2017-11-14T13:06:06.659Z,88.60
2017-11-14T13:08:33.539Z,88.50
2017-11-14T13:11:01.175Z,88.00
2017-11-14T13:13:28.083Z,88.00
2017-11-14T13:15:54.945Z,88.40
2017-11-14T13:18:22.738Z,88.90
2017-11-14T13:20:49.352Z,88.70
2017-11-14T13:23:16.810Z,88.80
2017-11-14T13:25:43.638Z,89.70
2017-11-14T13:28:11.288Z,90.10
2017-11-14T13:30:39.212Z,90.10
2017-11-14T13:35:19.469Z,90.10
2017-11-14T13:37:46.056Z,90.10
2017-11-14T13:40:12.572Z,90.10
2017-11-14T13:42:39.177Z,90.00
2017-11-14T13:45:05.732Z,89.90
2017-11-14T13:47:32.185Z,90.00
2017-11-14T13:49:58.747Z,89.40
2017-11-14T13:52:26.021Z,90.00
2017-11-14T13:54:52.453Z,90.00
2017-11-14T13:57:19.687Z,90.30
2017-11-14T13:59:46.209Z,90.30
2017-11-14T14:02:13.476Z,90.30
2017-11-14T14:04:40.693Z,90.60
2017-11-14T14:07:07.193Z,90.60
2017-11-14T14:09:34.449Z,90.70
2017-11-14T14:12:01.016Z,90.70
2017-11-14T14:14:27.606Z,90.70
2017-11-14T14:16:54.367Z,90.80
2017-11-14T14:19:20.925Z,90.80
2017-11-14T14:21:47.586Z,90.80
2017-11-14T14:24:14.144Z,90.60
2017-11-14T14:26:40.702Z,90.50
2017-11-14T14:29:08.510Z,90.50
2017-11-14T14:31:35.016Z,90.50
2017-11-14T14:34:02.270Z,91.00
2017-11-14T14:36:29.297Z,90.90
2017-11-14T14:38:55.848Z,91.20
2017-11-14T14:41:22.407Z,91.50
2017-11-14T14:43:49.477Z,91.70
2017-11-14T14:46:16.034Z,91.70
2017-11-14T14:48:44.435Z,92.10
2017-11-14T14:51:11.297Z,92.00
2017-11-14T14:53:37.856Z,92.40
2017-11-14T14:56:04.316Z,92.60
2017-11-14T14:58:30.873Z,92.80
2017-11-14T15:00:57.337Z,92.90
2017-11-14T15:03:23.795Z,93.00
2017-11-14T15:05:50.343Z,93.10
2017-11-14T15:08:16.800Z,93.20
2017-11-14T15:10:43.254Z,93.20
2017-11-14T15:13:09.813Z,93.30
2017-11-14T15:15:36.372Z,93.30
2017-11-14T15:18:02.868Z,93.30
2017-11-14T15:20:29.348Z,93.40
2017-11-14T15:22:56.565Z,93.40
2017-11-14T15:25:23.168Z,93.40
2017-11-14T15:27:49.649Z,93.40
2017-11-14T15:30:16.234Z,93.40
2017-11-14T15:32:42.995Z,93.70
2017-11-14T15:35:10.216Z,93.40
2017-11-14T15:37:36.931Z,93.40
2017-11-14T15:40:03.496Z,93.50
2017-11-14T15:42:30.047Z,93.50
2017-11-14T15:44:56.605Z,93.50
2017-11-14T15:47:23.882Z,93.40
2017-11-14T15:49:50.440Z,93.30
2017-11-14T15:52:17.712Z,93.50
2017-11-14T15:54:44.986Z,93.50
2017-11-14T15:57:12.261Z,93.50
2017-11-14T15:59:38.761Z,93.70
2017-11-14T16:02:06.614Z,93.80
2017-11-14T16:04:33.270Z,93.80
2017-11-14T16:06:59.828Z,93.90
2017-11-14T16:09:26.384Z,93.90
2017-11-14T16:11:52.942Z,94.00
2017-11-14T16:14:20.232Z,94.00
2017-11-14T16:16:47.592Z,94.10
2017-11-14T16:19:14.092Z,94.10
2017-11-14T16:21:40.661Z,94.00
2017-11-14T16:24:07.148Z,94.10
2017-11-14T16:26:34.355Z,94.20
2017-11-14T16:29:00.875Z,94.20
2017-11-14T16:31:28.280Z,94.20
2017-11-14T16:33:54.820Z,94.20
2017-11-14T16:36:21.339Z,94.20
2017-11-14T16:38:47.851Z,94.20
2017-11-14T16:41:14.711Z,94.40
2017-11-14T16:43:42.089Z,94.50
2017-11-14T16:46:08.646Z,94.50
2017-11-14T16:48:35.211Z,94.60
2017-11-14T16:51:01.973Z,94.50
2017-11-14T16:53:28.638Z,94.50
2017-11-14T16:55:55.173Z,94.50
2017-11-14T16:58:22.470Z,94.30
2017-11-14T17:00:49.123Z,94.30
2017-11-14T17:03:15.665Z,94.20
2017-11-14T17:05:42.954Z,94.00
2017-11-14T17:08:09.512Z,94.00
2017-11-14T17:10:36.024Z,94.00
2017-11-14T17:13:02.646Z,94.10
2017-11-14T17:15:29.150Z,94.10
2017-11-14T17:17:55.748Z,94.10
2017-11-14T17:20:22.210Z,94.60
2017-11-14T17:22:48.864Z,94.30
2017-11-14T17:25:15.421Z,94.40
2017-11-14T17:27:42.696Z,94.40
2017-11-14T17:30:09.179Z,94.40
2017-11-14T17:32:35.814Z,94.50
2017-11-14T17:35:02.372Z,94.70
2017-11-14T17:37:28.936Z,94.60
2017-11-14T17:39:55.492Z,94.50
2017-11-14T17:42:22.149Z,94.60
2017-11-14T17:44:49.386Z,94.60
2017-11-14T17:47:15.983Z,94.60
2017-11-14T17:49:42.748Z,94.60
2017-11-14T17:52:09.282Z,94.60
2017-11-14T17:54:35.767Z,95.00
2017-11-14T17:57:02.302Z,94.70
2017-11-14T17:59:29.900Z,94.60
2017-11-14T18:01:56.457Z,94.90
2017-11-14T18:04:23.222Z,94.60
2017-11-14T18:06:50.188Z,94.70
2017-11-14T18:09:17.463Z,94.80
2017-11-14T18:11:44.643Z,94.70
2017-11-14T18:14:11.192Z,94.70
2017-11-14T18:16:38.137Z,94.50
2017-11-14T18:19:06.765Z,94.30
2017-11-14T18:21:35.165Z,94.30
2017-11-14T18:24:02.849Z,94.20
2017-11-14T18:26:30.020Z,94.30
2017-11-14T18:28:58.270Z,94.20
2017-11-14T18:31:25.693Z,94.10
2017-11-14T18:33:53.192Z,94.10
2017-11-14T18:36:20.039Z,94.00
2017-11-14T18:38:46.699Z,93.90
2017-11-14T18:41:14.584Z,93.70
2017-11-14T18:43:43.031Z,93.90
2017-11-14T18:46:10.566Z,93.60
2017-11-14T18:48:37.590Z,93.60
2017-11-14T18:51:04.196Z,93.50
2017-11-14T18:53:30.854Z,93.40
2017-11-14T18:58:05.530Z,93.30
2017-11-14T19:00:32.228Z,93.30
2017-11-14T19:02:59.805Z,93.20
2017-11-14T19:05:26.375Z,93.10
2017-11-14T19:07:54.711Z,93.00
2017-11-14T19:10:23.825Z,93.00
2017-11-14T19:12:52.276Z,93.10
2017-11-14T19:15:20.466Z,93.10
2017-11-14T19:17:47.473Z,93.10
2017-11-14T19:20:17.480Z,93.10
2017-11-14T19:22:45.568Z,93.00
2017-11-14T19:25:12.238Z,93.00
2017-11-14T19:27:39.970Z,93.10
2017-11-14T19:30:07.392Z,93.10
2017-11-14T19:32:34.873Z,93.10
2017-11-14T19:35:03.392Z,93.10
2017-11-14T19:37:30.752Z,93.20
2017-11-14T19:39:58.370Z,93.10
2017-11-14T19:42:26.976Z,93.10
2017-11-14T19:44:55.213Z,93.00
2017-11-14T19:47:22.916Z,93.00
2017-11-14T19:49:53.060Z,93.00
2017-11-14T19:52:22.272Z,92.90
2017-11-14T19:54:52.153Z,92.90
2017-11-14T19:57:21.278Z,92.90
2017-11-14T19:59:51.022Z,92.80
2017-11-14T20:02:21.496Z,92.80
2017-11-14T20:04:50.276Z,92.90
2017-11-14T20:07:19.001Z,92.90
2017-11-14T20:09:49.700Z,92.80
2017-11-14T20:12:18.979Z,92.70
2017-11-14T20:14:48.175Z,92.70
2017-11-14T20:17:18.377Z,92.70
2017-11-14T20:19:49.626Z,92.60
2017-11-14T20:22:17.321Z,92.70
2017-11-14T20:24:45.378Z,92.70
2017-11-14T20:27:12.547Z,92.70
2017-11-14T20:29:40.890Z,92.70
2017-11-14T20:32:08.115Z,92.70
2017-11-14T20:34:34.890Z,92.60
2017-11-14T20:37:01.641Z,92.70
2017-11-14T20:39:29.734Z,92.70
2017-11-14T20:41:58.849Z,92.70
2017-11-14T20:44:25.923Z,92.70
2017-11-14T20:46:53.424Z,92.40
2017-11-14T20:49:20.671Z,92.40
2017-11-14T20:51:47.534Z,92.40
2017-11-14T20:54:15.627Z,92.20
2017-11-14T20:56:44.029Z,92.20
2017-11-14T20:59:11.508Z,92.10
2017-11-14T21:01:38.579Z,92.00
2017-11-14T21:04:06.157Z,92.00
2017-11-14T21:06:33.226Z,92.00
2017-11-14T21:09:00.501Z,91.90
2017-11-14T21:11:27.060Z,92.30
2017-11-14T21:13:53.616Z,91.90
2017-11-14T21:16:20.996Z,91.70
2017-11-14T21:18:48.052Z,91.70
2017-11-14T21:21:15.292Z,91.80
2017-11-14T21:23:41.838Z,91.80
2017-11-14T21:26:08.428Z,91.70
2017-11-14T21:28:35.116Z,91.70
2017-11-14T21:31:01.665Z,91.70
2017-11-14T21:33:29.504Z,91.50
2017-11-14T21:35:56.121Z,91.50
2017-11-14T21:38:22.686Z,91.40
2017-11-14T21:40:49.143Z,91.40
2017-11-14T21:43:16.409Z,91.30
2017-11-14T21:45:43.785Z,91.50
2017-11-14T21:48:11.588Z,91.40
2017-11-14T21:50:38.231Z,91.40
2017-11-14T21:53:05.219Z,91.20
2017-11-14T21:55:31.862Z,91.40
2017-11-14T21:57:58.418Z,91.30
2017-11-14T22:00:26.220Z,91.50
2017-11-14T22:02:52.686Z,91.50
2017-11-14T22:05:19.160Z,91.30
2017-11-14T22:07:45.582Z,91.40
2017-11-14T22:10:12.036Z,91.50
2017-11-14T22:12:38.485Z,91.60
2017-11-14T22:15:05.050Z,91.60
2017-11-14T22:17:31.605Z,91.50
2017-11-14T22:19:58.639Z,91.40
2017-11-14T22:22:25.708Z,91.50
2017-11-14T22:24:53.015Z,91.70
2017-11-14T22:27:19.574Z,91.60
2017-11-14T22:29:46.144Z,91.70
2017-11-14T22:32:12.692Z,91.70
2017-11-14T22:34:39.249Z,91.70
2017-11-14T22:37:05.766Z,91.70
2017-11-14T22:39:32.370Z,91.60
2017-11-14T22:41:58.927Z,91.70
2017-11-14T22:44:25.483Z,91.60
2017-11-14T22:46:51.912Z,91.60
2017-11-14T22:49:19.848Z,91.60
2017-11-14T22:51:47.149Z,91.60
2017-11-14T22:54:13.631Z,91.60
2017-11-14T22:56:40.935Z,91.70
2017-11-14T22:59:07.492Z,91.70
2017-11-14T23:01:35.843Z,91.60
2017-11-14T23:04:02.990Z,91.50
2017-11-14T23:06:29.523Z,91.60
2017-11-14T23:08:56.077Z,91.40
2017-11-14T23:11:23.354Z,91.50
2017-11-14T23:13:50.322Z,91.50
2017-11-14T23:16:16.769Z,91.40
2017-11-14T23:18:43.250Z,91.40
2017-11-14T23:21:09.742Z,91.60
2017-11-14T23:23:36.861Z,91.60
2017-11-14T23:26:03.286Z,91.60
2017-11-14T23:28:29.772Z,91.60
2017-11-14T23:30:56.846Z,91.60
2017-11-14T23:33:23.950Z,91.40
2017-11-14T23:35:53.495Z,91.20
2017-11-14T23:38:22.195Z,91.10
2017-11-14T23:40:51.383Z,91.20
2017-11-14T23:43:18.129Z,91.20
2017-11-14T23:45:45.942Z,91.00
2017-11-14T23:48:17.325Z,91.10
2017-11-14T23:50:44.185Z,91.10
2017-11-14T23:53:10.908Z,91.10
2017-11-14T23:55:40.381Z,91.10
2017-11-14T23:58:08.526Z,91.00
